sensor_id;sensor_type;location;lat;lon;timestamp;pressure;altitude;pressure_sealevel;temperature;humidity
18755;BME280;35061;47.664;9.166;2023-02-21T00:00:15;102182.41;;;4.47;80.54
18755;BME280;35061;47.664;9.166;2023-02-21T00:03:01;102184.44;;;4.43;80.68
18755;BME280;35061;47.664;9.166;2023-02-21T00:05:47;102178.78;;;4.39;80.62
18755;BME280;35061;47.664;9.166;2023-02-21T00:08:34;102176.00;;;4.36;80.44
18755;BME280;35061;47.664;9.166;2023-02-21T00:11:20;102175.61;;;4.30;80.43
18755;BME280;35061;47.664;9.166;2023-02-21T00:14:07;102171.98;;;4.29;80.90
18755;BME280;35061;47.664;9.166;2023-02-21T00:16:53;102169.95;;;4.30;81.01
18755;BME280;35061;47.664;9.166;2023-02-21T00:19:39;102166.72;;;4.28;80.71
18755;BME280;35061;47.664;9.166;2023-02-21T00:22:26;102160.63;;;4.29;80.90
18755;BME280;35061;47.664;9.166;2023-02-21T00:25:12;102157.07;;;4.22;81.33
18755;BME280;35061;47.664;9.166;2023-02-21T00:28:00;102157.46;;;4.20;81.07
18755;BME280;35061;47.664;9.166;2023-02-21T00:30:45;102149.35;;;4.18;81.29
18755;BME280;35061;47.664;9.166;2023-02-21T00:33:35;102157.85;;;4.18;80.94
18755;BME280;35061;47.664;9.166;2023-02-21T00:36:21;102155.47;;;4.17;81.47
18755;BME280;35061;47.664;9.166;2023-02-21T00:39:07;102152.27;;;4.11;81.28
18755;BME280;35061;47.664;9.166;2023-02-21T00:41:54;102158.80;;;4.04;81.97
18755;BME280;35061;47.664;9.166;2023-02-21T00:44:40;102151.55;;;4.00;81.42
18755;BME280;35061;47.664;9.166;2023-02-21T00:47:26;102140.62;;;3.91;81.41
18755;BME280;35061;47.664;9.166;2023-02-21T00:50:13;102146.77;;;3.86;81.79
18755;BME280;35061;47.664;9.166;2023-02-21T00:52:59;102154.81;;;3.87;81.90
18755;BME280;35061;47.664;9.166;2023-02-21T00:55:46;102144.32;;;3.84;81.72
18755;BME280;35061;47.664;9.166;2023-02-21T00:58:32;102142.32;;;3.85;81.88
18755;BME280;35061;47.664;9.166;2023-02-21T01:01:19;102141.08;;;3.86;82.02
18755;BME280;35061;47.664;9.166;2023-02-21T01:04:05;102147.95;;;3.88;82.03
18755;BME280;35061;47.664;9.166;2023-02-21T01:06:51;102142.68;;;3.87;82.13
18755;BME280;35061;47.664;9.166;2023-02-21T01:09:38;102140.27;;;3.89;82.22
18755;BME280;35061;47.664;9.166;2023-02-21T01:12:24;102137.41;;;3.89;82.13
18755;BME280;35061;47.664;9.166;2023-02-21T01:15:11;102136.63;;;3.88;82.08
18755;BME280;35061;47.664;9.166;2023-02-21T01:17:58;102128.06;;;3.92;82.06
18755;BME280;35061;47.664;9.166;2023-02-21T01:20:44;102130.55;;;3.86;81.61
18755;BME280;35061;47.664;9.166;2023-02-21T01:23:30;102129.73;;;3.86;81.83
18755;BME280;35061;47.664;9.166;2023-02-21T01:26:17;102133.43;;;3.83;82.03
18755;BME280;35061;47.664;9.166;2023-02-21T01:29:04;102126.56;;;3.80;81.76
18755;BME280;35061;47.664;9.166;2023-02-21T01:31:50;102129.02;;;3.71;81.51
18755;BME280;35061;47.664;9.166;2023-02-21T01:34:36;102130.68;;;3.61;81.41
18755;BME280;35061;47.664;9.166;2023-02-21T01:37:22;102133.16;;;3.52;82.09
18755;BME280;35061;47.664;9.166;2023-02-21T01:40:14;102129.14;;;3.49;81.84
18755;BME280;35061;47.664;9.166;2023-02-21T01:43:00;102125.94;;;3.40;82.40
18755;BME280;35061;47.664;9.166;2023-02-21T01:45:48;102133.20;;;3.41;82.60
18755;BME280;35061;47.664;9.166;2023-02-21T01:48:35;102124.73;;;3.41;82.76
18755;BME280;35061;47.664;9.166;2023-02-21T01:51:26;102126.33;;;3.42;83.69
18755;BME280;35061;47.664;9.166;2023-02-21T01:54:13;102129.99;;;3.35;83.16
18755;BME280;35061;47.664;9.166;2023-02-21T01:57:01;102140.55;;;3.31;82.91
18755;BME280;35061;47.664;9.166;2023-02-21T01:59:49;102113.05;;;3.24;83.45
18755;BME280;35061;47.664;9.166;2023-02-21T02:02:52;102127.22;;;3.24;83.62
18755;BME280;35061;47.664;9.166;2023-02-21T02:05:42;102109.03;;;3.21;83.51
18755;BME280;35061;47.664;9.166;2023-02-21T02:08:31;102105.77;;;3.27;84.02
18755;BME280;35061;47.664;9.166;2023-02-21T02:17:23;102111.39;;;3.34;83.35
18755;BME280;35061;47.664;9.166;2023-02-21T02:33:54;102101.77;;;3.13;83.65
18755;BME280;35061;47.664;9.166;2023-02-21T02:36:33;102111.87;;;3.07;83.18
18755;BME280;35061;47.664;9.166;2023-02-21T02:41:48;102106.71;;;2.87;84.65
18755;BME280;35061;47.664;9.166;2023-02-21T02:44:24;102103.90;;;2.80;84.48
18755;BME280;35061;47.664;9.166;2023-02-21T02:46:57;102102.69;;;2.74;84.45
18755;BME280;35061;47.664;9.166;2023-02-21T02:49:28;102100.66;;;2.67;85.02
18755;BME280;35061;47.664;9.166;2023-02-21T02:52:07;102101.48;;;2.60;85.04
18755;BME280;35061;47.664;9.166;2023-02-21T02:54:35;102095.43;;;2.55;85.15
18755;BME280;35061;47.664;9.166;2023-02-21T02:57:06;102095.82;;;2.49;85.14
18755;BME280;35061;47.664;9.166;2023-02-21T02:59:39;102096.25;;;2.44;85.38
18755;BME280;35061;47.664;9.166;2023-02-21T03:10:39;102090.23;;;2.24;86.10
18755;BME280;35061;47.664;9.166;2023-02-21T03:16:17;102092.62;;;2.26;86.23
18755;BME280;35061;47.664;9.166;2023-02-21T03:18:53;102083.76;;;2.23;86.04
18755;BME280;35061;47.664;9.166;2023-02-21T03:21:33;102086.18;;;2.18;85.80
18755;BME280;35061;47.664;9.166;2023-02-21T03:24:04;102088.99;;;2.11;86.21
18755;BME280;35061;47.664;9.166;2023-02-21T03:26:35;102082.55;;;2.03;86.78
18755;BME280;35061;47.664;9.166;2023-02-21T03:29:05;102082.52;;;1.99;88.72
18755;BME280;35061;47.664;9.166;2023-02-21T03:31:38;102088.99;;;2.03;88.15
18755;BME280;35061;47.664;9.166;2023-02-21T03:34:08;102097.06;;;2.01;89.50
18755;BME280;35061;47.664;9.166;2023-02-21T03:36:37;102088.59;;;2.08;88.95
18755;BME280;35061;47.664;9.166;2023-02-21T03:39:05;102087.81;;;2.08;90.53
18755;BME280;35061;47.664;9.166;2023-02-21T03:41:33;102089.80;;;2.07;88.91
18755;BME280;35061;47.664;9.166;2023-02-21T03:44:01;102088.99;;;2.03;90.57
18755;BME280;35061;47.664;9.166;2023-02-21T03:46:28;102087.78;;;2.04;90.85
18755;BME280;35061;47.664;9.166;2023-02-21T03:48:56;102093.86;;;2.10;90.07
18755;BME280;35061;47.664;9.166;2023-02-21T03:51:24;102091.80;;;2.11;91.27
18755;BME280;35061;47.664;9.166;2023-02-21T03:53:52;102091.41;;;2.08;89.77
18755;BME280;35061;47.664;9.166;2023-02-21T03:56:20;102085.75;;;2.08;89.44
18755;BME280;35061;47.664;9.166;2023-02-21T03:58:53;102091.02;;;2.06;89.24
18755;BME280;35061;47.664;9.166;2023-02-21T04:01:21;102087.35;;;2.06;90.05
18755;BME280;35061;47.664;9.166;2023-02-21T04:03:49;102088.59;;;2.16;90.25
18755;BME280;35061;47.664;9.166;2023-02-21T04:06:17;102086.57;;;2.23;90.20
18755;BME280;35061;47.664;9.166;2023-02-21T04:08:44;102089.80;;;2.29;89.88
18755;BME280;35061;47.664;9.166;2023-02-21T04:11:17;102087.78;;;2.37;89.93
18755;BME280;35061;47.664;9.166;2023-02-21T04:13:45;102078.46;;;2.47;89.90
18755;BME280;35061;47.664;9.166;2023-02-21T04:16:12;102077.25;;;2.52;89.23
18755;BME280;35061;47.664;9.166;2023-02-21T04:18:40;102078.46;;;2.55;89.12
18755;BME280;35061;47.664;9.166;2023-02-21T04:21:08;102080.87;;;2.60;89.13
18755;BME280;35061;47.664;9.166;2023-02-21T04:23:36;102078.85;;;2.64;88.66
18755;BME280;35061;47.664;9.166;2023-02-21T04:26:03;102086.54;;;2.67;88.47
18755;BME280;35061;47.664;9.166;2023-02-21T04:28:31;102077.25;;;2.67;88.48
18755;BME280;35061;47.664;9.166;2023-02-21T04:30:59;102071.98;;;2.72;88.19
18755;BME280;35061;47.664;9.166;2023-02-21T04:33:27;102080.84;;;2.74;88.18
18755;BME280;35061;47.664;9.166;2023-02-21T04:35:54;102079.24;;;2.77;87.64
18755;BME280;35061;47.664;9.166;2023-02-21T04:38:22;102073.59;;;2.73;87.55
18755;BME280;35061;47.664;9.166;2023-02-21T04:40:50;102079.63;;;2.72;87.36
18755;BME280;35061;47.664;9.166;2023-02-21T04:43:18;102076.04;;;2.64;87.78
18755;BME280;35061;47.664;9.166;2023-02-21T04:45:47;102078.03;;;2.63;87.44
18755;BME280;35061;47.664;9.166;2023-02-21T04:48:15;102082.52;;;2.57;87.64
18755;BME280;35061;47.664;9.166;2023-02-21T04:50:43;102086.96;;;2.51;87.90
18755;BME280;35061;47.664;9.166;2023-02-21T04:53:11;102091.41;;;2.37;89.07
18755;BME280;35061;47.664;9.166;2023-02-21T04:55:39;102088.20;;;2.28;88.55
18755;BME280;35061;47.664;9.166;2023-02-21T04:58:07;102099.48;;;2.21;88.26
18755;BME280;35061;47.664;9.166;2023-02-21T05:00:35;102099.48;;;2.17;88.02
18755;BME280;35061;47.664;9.166;2023-02-21T05:03:02;102107.56;;;2.19;88.54
18755;BME280;35061;47.664;9.166;2023-02-21T05:05:30;102101.52;;;2.20;88.74
18755;BME280;35061;47.664;9.166;2023-02-21T05:07:58;102099.88;;;2.23;88.18
18755;BME280;35061;47.664;9.166;2023-02-21T05:10:25;102096.67;;;2.25;88.02
18755;BME280;35061;47.664;9.166;2023-02-21T05:13:10;102093.44;;;2.26;87.89
18755;BME280;35061;47.664;9.166;2023-02-21T05:15:38;102083.76;;;2.23;87.78
18755;BME280;35061;47.664;9.166;2023-02-21T05:18:06;102095.86;;;2.09;88.04
18755;BME280;35061;47.664;9.166;2023-02-21T05:20:33;102096.25;;;2.01;88.06
18755;BME280;35061;47.664;9.166;2023-02-21T05:23:01;102091.02;;;1.99;88.35
18755;BME280;35061;47.664;9.166;2023-02-21T05:25:39;102096.64;;;1.95;88.45
18755;BME280;35061;47.664;9.166;2023-02-21T05:28:07;102087.35;;;1.88;88.05
18755;BME280;35061;47.664;9.166;2023-02-21T05:30:35;102092.59;;;1.82;88.15
18755;BME280;35061;47.664;9.166;2023-02-21T05:33:03;102087.35;;;1.73;88.02
18755;BME280;35061;47.664;9.166;2023-02-21T05:35:30;102082.05;;;1.64;88.47
18755;BME280;35061;47.664;9.166;2023-02-21T05:37:58;102104.65;;;1.64;89.13
18755;BME280;35061;47.664;9.166;2023-02-21T05:40:26;102089.74;;;1.64;89.22
18755;BME280;35061;47.664;9.166;2023-02-21T05:42:53;102100.66;;;1.65;89.89
18755;BME280;35061;47.664;9.166;2023-02-21T05:45:21;102102.69;;;1.72;91.10
18755;BME280;35061;47.664;9.166;2023-02-21T05:47:49;102100.27;;;1.74;90.08
18755;BME280;35061;47.664;9.166;2023-02-21T05:50:17;102100.27;;;1.78;90.48
18755;BME280;35061;47.664;9.166;2023-02-21T05:52:44;102104.72;;;1.83;90.92
18755;BME280;35061;47.664;9.166;2023-02-21T05:55:12;102106.74;;;1.86;90.90
18755;BME280;35061;47.664;9.166;2023-02-21T05:57:40;102104.33;;;1.88;90.95
18755;BME280;35061;47.664;9.166;2023-02-21T06:00:16;102108.74;;;1.89;91.15
18755;BME280;35061;47.664;9.166;2023-02-21T06:02:44;102109.16;;;1.87;92.24
18755;BME280;35061;47.664;9.166;2023-02-21T06:05:12;102117.63;;;1.87;92.55
18755;BME280;35061;47.664;9.166;2023-02-21T06:07:40;102117.24;;;1.89;91.69
18755;BME280;35061;47.664;9.166;2023-02-21T06:10:08;102111.98;;;1.91;91.75
18755;BME280;35061;47.664;9.166;2023-02-21T06:12:36;102114.79;;;1.91;91.85
18755;BME280;35061;47.664;9.166;2023-02-21T06:15:04;102122.90;;;1.92;92.83
18755;BME280;35061;47.664;9.166;2023-02-21T06:17:35;102121.27;;;1.84;93.76
18755;BME280;35061;47.664;9.166;2023-02-21T06:20:04;102123.29;;;1.84;94.07
18755;BME280;35061;47.664;9.166;2023-02-21T06:22:32;102125.29;;;1.79;94.43
18755;BME280;35061;47.664;9.166;2023-02-21T06:25:00;102128.91;;;1.76;94.98
18755;BME280;35061;47.664;9.166;2023-02-21T06:27:28;102127.70;;;1.77;94.03
18755;BME280;35061;47.664;9.166;2023-02-21T06:29:55;102130.09;;;1.72;95.57
18755;BME280;35061;47.664;9.166;2023-02-21T06:32:23;102130.09;;;1.68;96.56
18755;BME280;35061;47.664;9.166;2023-02-21T06:34:51;102128.49;;;1.67;96.34
18755;BME280;35061;47.664;9.166;2023-02-21T06:37:18;102126.07;;;1.69;95.78
18755;BME280;35061;47.664;9.166;2023-02-21T06:39:46;102123.26;;;1.80;96.46
18755;BME280;35061;47.664;9.166;2023-02-21T06:42:15;102120.45;;;1.84;95.46
18755;BME280;35061;47.664;9.166;2023-02-21T06:44:45;102118.88;;;1.86;95.09
18755;BME280;35061;47.664;9.166;2023-02-21T06:47:13;102118.45;;;1.95;95.33
18755;BME280;35061;47.664;9.166;2023-02-21T06:49:41;102110.80;;;2.03;95.08
18755;BME280;35061;47.664;9.166;2023-02-21T06:52:10;102116.45;;;2.06;94.85
18755;BME280;35061;47.664;9.166;2023-02-21T06:54:37;102118.88;;;2.08;94.97
18755;BME280;35061;47.664;9.166;2023-02-21T06:57:05;102122.90;;;2.14;95.51
18755;BME280;35061;47.664;9.166;2023-02-21T06:59:33;102115.67;;;2.24;95.31
18755;BME280;35061;47.664;9.166;2023-02-21T07:02:01;102117.27;;;2.32;94.80
18755;BME280;35061;47.664;9.166;2023-02-21T07:04:31;102123.75;;;2.36;94.04
18755;BME280;35061;47.664;9.166;2023-02-21T07:06:59;102126.56;;;2.29;93.20
18755;BME280;35061;47.664;9.166;2023-02-21T07:09:26;102128.59;;;2.29;93.75
18755;BME280;35061;47.664;9.166;2023-02-21T07:11:54;102126.95;;;2.31;93.74
18755;BME280;35061;47.664;9.166;2023-02-21T07:14:22;102125.35;;;2.37;93.64
18755;BME280;35061;47.664;9.166;2023-02-21T07:16:49;102134.24;;;2.40;93.52
18755;BME280;35061;47.664;9.166;2023-02-21T07:19:17;102136.66;;;2.37;93.07
18755;BME280;35061;47.664;9.166;2023-02-21T07:21:46;102137.05;;;2.40;93.48
18755;BME280;35061;47.664;9.166;2023-02-21T07:24:14;102144.74;;;2.50;93.56
18755;BME280;35061;47.664;9.166;2023-02-21T07:26:41;102147.59;;;2.57;93.35
18755;BME280;35061;47.664;9.166;2023-02-21T07:29:09;102147.16;;;2.62;93.28
18755;BME280;35061;47.664;9.166;2023-02-21T07:31:37;102142.29;;;2.70;93.21
18755;BME280;35061;47.664;9.166;2023-02-21T07:34:05;102149.16;;;2.76;92.90
18755;BME280;35061;47.664;9.166;2023-02-21T07:36:32;102152.82;;;2.73;93.13
18755;BME280;35061;47.664;9.166;2023-02-21T07:39:00;102151.55;;;2.92;92.90
18755;BME280;35061;47.664;9.166;2023-02-21T07:41:28;102155.60;;;2.88;92.55
18755;BME280;35061;47.664;9.166;2023-02-21T07:43:56;102155.60;;;2.95;92.67
18755;BME280;35061;47.664;9.166;2023-02-21T07:46:26;102166.09;;;3.05;92.64
18755;BME280;35061;47.664;9.166;2023-02-21T07:48:55;102163.25;;;3.09;92.19
18755;BME280;35061;47.664;9.166;2023-02-21T07:51:27;102160.02;;;3.07;91.18
18755;BME280;35061;47.664;9.166;2023-02-21T07:53:55;102166.06;;;3.13;91.41
18755;BME280;35061;47.664;9.166;2023-02-21T07:56:23;102155.17;;;3.15;91.27
18755;BME280;35061;47.664;9.166;2023-02-21T07:58:51;102165.67;;;3.21;91.36
18755;BME280;35061;47.664;9.166;2023-02-21T08:01:22;102162.01;;;3.25;91.12
18755;BME280;35061;47.664;9.166;2023-02-21T08:03:50;102162.76;;;3.32;90.83
18755;BME280;35061;47.664;9.166;2023-02-21T08:06:18;102153.48;;;3.35;90.51
18755;BME280;35061;47.664;9.166;2023-02-21T08:08:46;102150.23;;;3.33;90.26
18755;BME280;35061;47.664;9.166;2023-02-21T08:11:14;102154.26;;;3.36;90.29
18755;BME280;35061;47.664;9.166;2023-02-21T08:13:42;102153.05;;;3.41;90.21
18755;BME280;35061;47.664;9.166;2023-02-21T08:16:09;102158.28;;;3.46;90.20
18755;BME280;35061;47.664;9.166;2023-02-21T08:18:37;102156.25;;;3.46;89.97
18755;BME280;35061;47.664;9.166;2023-02-21T08:21:08;102145.76;;;3.47;89.86
18755;BME280;35061;47.664;9.166;2023-02-21T08:23:36;102146.12;;;3.49;90.07
18755;BME280;35061;47.664;9.166;2023-02-21T08:26:05;102142.84;;;3.54;89.87
18755;BME280;35061;47.664;9.166;2023-02-21T08:28:33;102143.27;;;3.56;89.77
18755;BME280;35061;47.664;9.166;2023-02-21T08:31:01;102141.63;;;3.59;89.95
18755;BME280;35061;47.664;9.166;2023-02-21T08:33:29;102139.61;;;3.63;89.85
18755;BME280;35061;47.664;9.166;2023-02-21T08:35:57;102135.09;;;3.69;89.69
18755;BME280;35061;47.664;9.166;2023-02-21T08:38:25;102133.49;;;3.68;89.98
18755;BME280;35061;47.664;9.166;2023-02-21T08:40:52;102134.31;;;3.69;90.46
18755;BME280;35061;47.664;9.166;2023-02-21T08:43:23;102139.51;;;3.77;90.39
18755;BME280;35061;47.664;9.166;2023-02-21T08:45:51;102142.32;;;3.85;90.14
18755;BME280;35061;47.664;9.166;2023-02-21T08:48:19;102131.34;;;3.90;89.98
18755;BME280;35061;47.664;9.166;2023-02-21T08:50:47;102132.48;;;4.00;89.89
18755;BME280;35061;47.664;9.166;2023-02-21T08:53:15;102127.58;;;4.08;89.91
18755;BME280;35061;47.664;9.166;2023-02-21T08:55:43;102124.27;;;4.17;89.96
18755;BME280;35061;47.664;9.166;2023-02-21T08:58:11;102129.47;;;4.26;89.89
18755;BME280;35061;47.664;9.166;2023-02-21T09:00:39;102127.77;;;4.36;89.83
18755;BME280;35061;47.664;9.166;2023-02-21T09:03:07;102125.25;;;4.45;nan
18755;BME280;35061;47.664;9.166;2023-02-21T09:05:35;102123.55;;;4.55;89.49
18755;BME280;35061;47.664;9.166;2023-02-21T09:08:02;102118.59;;;4.66;89.29
18755;BME280;35061;47.664;9.166;2023-02-21T09:10:32;102121.30;;;4.77;89.03
18755;BME280;35061;47.664;9.166;2023-02-21T09:13:01;102126.46;;;4.89;88.83
18755;BME280;35061;47.664;9.166;2023-02-21T09:15:29;102137.71;;;5.00;88.77
18755;BME280;35061;47.664;9.166;2023-02-21T09:17:56;102118.13;;;5.10;88.45
18755;BME280;35061;47.664;9.166;2023-02-21T09:20:25;102118.42;;;5.19;88.12
18755;BME280;35061;47.664;9.166;2023-02-21T09:22:53;102119.17;;;5.23;86.98
18755;BME280;35061;47.664;9.166;2023-02-21T09:25:22;102116.26;;;5.30;87.36
18755;BME280;35061;47.664;9.166;2023-02-21T09:27:52;102123.48;;;5.39;87.25
18755;BME280;35061;47.664;9.166;2023-02-21T09:30:23;102114.43;;;5.48;87.44
18755;BME280;35061;47.664;9.166;2023-02-21T09:32:53;102114.30;;;5.58;87.26
18755;BME280;35061;47.664;9.166;2023-02-21T09:35:21;102111.29;;;5.69;86.96
18755;BME280;35061;47.664;9.166;2023-02-21T09:37:50;102109.10;;;5.81;86.65
18755;BME280;35061;47.664;9.166;2023-02-21T09:42:56;102099.88;;;6.00;85.82
18755;BME280;35061;47.664;9.166;2023-02-21T09:45:29;102096.51;;;6.09;85.45
18755;BME280;35061;47.664;9.166;2023-02-21T09:48:01;102093.93;;;6.19;85.06
18755;BME280;35061;47.664;9.166;2023-02-21T09:50:36;102082.05;;;6.24;84.88
18755;BME280;35061;47.664;9.166;2023-02-21T09:53:07;102075.38;;;6.34;84.69
18755;BME280;35061;47.664;9.166;2023-02-21T09:55:38;102070.71;;;6.44;84.80
18755;BME280;35061;47.664;9.166;2023-02-21T09:58:12;102068.13;;;6.53;84.10
18755;BME280;35061;47.664;9.166;2023-02-21T10:00:40;102068.78;;;6.61;83.30
18755;BME280;35061;47.664;9.166;2023-02-21T10:03:29;102068.23;;;6.70;83.74
18755;BME280;35061;47.664;9.166;2023-02-21T10:17:15;102048.80;;;7.25;82.58
18755;BME280;35061;47.664;9.166;2023-02-21T10:19:50;102054.62;;;7.38;82.40
18755;BME280;35061;47.664;9.166;2023-02-21T10:22:24;102053.51;;;7.52;82.09
18755;BME280;35061;47.664;9.166;2023-02-21T10:24:53;102054.49;;;7.62;81.51
18755;BME280;35061;47.664;9.166;2023-02-21T10:27:24;102054.69;;;7.72;81.55
18755;BME280;35061;47.664;9.166;2023-02-21T10:30:02;102051.22;;;7.80;80.63
18755;BME280;35061;47.664;9.166;2023-02-21T10:32:31;102042.49;;;7.88;80.33
18755;BME280;35061;47.664;9.166;2023-02-21T10:34:59;102045.62;;;7.93;79.04
18755;BME280;35061;47.664;9.166;2023-02-21T10:37:41;102044.65;;;8.00;78.32
18755;BME280;35061;47.664;9.166;2023-02-21T10:43:06;102038.04;;;8.20;78.32
18755;BME280;35061;47.664;9.166;2023-02-21T10:45:43;102032.52;;;8.29;78.49
18755;BME280;35061;47.664;9.166;2023-02-21T10:48:13;102028.66;;;8.36;76.12
18755;BME280;35061;47.664;9.166;2023-02-21T10:50:43;102030.88;;;8.45;77.75
18755;BME280;35061;47.664;9.166;2023-02-21T10:53:29;102026.95;;;8.55;77.56
18755;BME280;35061;47.664;9.166;2023-02-21T10:58:57;102022.25;;;8.78;76.00
18755;BME280;35061;47.664;9.166;2023-02-21T11:04:05;102021.17;;;9.01;76.61
18755;BME280;35061;47.664;9.166;2023-02-21T11:06:36;102021.20;;;9.14;76.35
18755;BME280;35061;47.664;9.166;2023-02-21T11:09:44;102010.34;;;9.22;76.19
18755;BME280;35061;47.664;9.166;2023-02-21T11:17:27;101997.23;;;9.51;74.86
18755;BME280;35061;47.664;9.166;2023-02-21T11:19:57;101991.38;;;9.54;74.74
18755;BME280;35061;47.664;9.166;2023-02-21T11:22:37;101988.30;;;9.61;74.39
18755;BME280;35061;47.664;9.166;2023-02-21T11:25:24;101988.53;;;9.67;74.11
18755;BME280;35061;47.664;9.166;2023-02-21T11:30:33;101978.79;;;9.64;72.77
18755;BME280;35061;47.664;9.166;2023-02-21T11:33:03;101983.04;;;9.60;72.86
18755;BME280;35061;47.664;9.166;2023-02-21T11:35:34;101981.44;;;9.59;72.77
18755;BME280;35061;47.664;9.166;2023-02-21T11:38:07;101973.79;;;9.56;72.70
18755;BME280;35061;47.664;9.166;2023-02-21T11:40:54;101965.64;;;9.54;72.39
18755;BME280;35061;47.664;9.166;2023-02-21T11:43:32;101971.04;;;9.52;72.46
18755;BME280;35061;47.664;9.166;2023-02-21T11:46:09;101962.57;;;9.48;72.18
18755;BME280;35061;47.664;9.166;2023-02-21T11:51:26;101950.80;;;9.33;71.83
18755;BME280;35061;47.664;9.166;2023-02-21T11:53:56;101949.88;;;9.37;71.95
18755;BME280;35061;47.664;9.166;2023-02-21T11:56:53;101942.43;;;9.52;72.11
18755;BME280;35061;47.664;9.166;2023-02-21T12:13:21;101902.01;;;9.76;71.05
18755;BME280;35061;47.664;9.166;2023-02-21T12:26:41;101864.34;;;9.90;70.57
18755;BME280;35061;47.664;9.166;2023-02-21T12:29:27;101855.61;;;9.94;70.17
18755;BME280;35061;47.664;9.166;2023-02-21T12:37:55;101845.96;;;10.23;69.55
18755;BME280;35061;47.664;9.166;2023-02-21T12:43:26;101824.25;;;10.35;68.95
18755;BME280;35061;47.664;9.166;2023-02-21T12:49:23;101811.20;;;10.34;68.21
18755;BME280;35061;47.664;9.166;2023-02-21T12:51:56;101802.96;;;10.36;68.26
18755;BME280;35061;47.664;9.166;2023-02-21T12:54:49;101800.73;;;10.40;68.73
18755;BME280;35061;47.664;9.166;2023-02-21T12:57:38;101791.25;;;10.43;68.24
18755;BME280;35061;47.664;9.166;2023-02-21T13:00:14;101790.30;;;10.46;67.65
18755;BME280;35061;47.664;9.166;2023-02-21T13:05:40;101790.96;;;10.51;67.64
18755;BME280;35061;47.664;9.166;2023-02-21T13:08:16;101766.96;;;10.48;66.97
18755;BME280;35061;47.664;9.166;2023-02-21T13:10:52;101766.80;;;10.52;67.33
18755;BME280;35061;47.664;9.166;2023-02-21T13:13:29;101756.46;;;10.54;67.04
18755;BME280;35061;47.664;9.166;2023-02-21T13:16:04;101755.55;;;10.57;67.18
18755;BME280;35061;47.664;9.166;2023-02-21T13:18:36;101754.43;;;10.64;67.16
18755;BME280;35061;47.664;9.166;2023-02-21T13:29:41;101735.89;;;10.97;66.72
18755;BME280;35061;47.664;9.166;2023-02-21T13:32:11;101724.16;;;11.04;65.77
18755;BME280;35061;47.664;9.166;2023-02-21T13:34:43;101722.55;;;11.12;65.85
18755;BME280;35061;47.664;9.166;2023-02-21T13:37:21;101713.33;;;11.17;65.58
18755;BME280;35061;47.664;9.166;2023-02-21T13:39:57;101703.95;;;11.26;65.50
18755;BME280;35061;47.664;9.166;2023-02-21T13:42:28;101702.51;;;11.31;65.28
18755;BME280;35061;47.664;9.166;2023-02-21T13:45:22;101697.41;;;11.35;64.68
18755;BME280;35061;47.664;9.166;2023-02-21T13:53:17;101690.70;;;11.48;62.72
18755;BME280;35061;47.664;9.166;2023-02-21T13:58:35;101677.00;;;11.52;61.43
18755;BME280;35061;47.664;9.166;2023-02-21T14:03:57;101674.48;;;11.54;61.70
18755;BME280;35061;47.664;9.166;2023-02-21T14:06:35;101668.53;;;11.57;62.19
18755;BME280;35061;47.664;9.166;2023-02-21T14:09:14;101658.20;;;11.60;61.31
18755;BME280;35061;47.664;9.166;2023-02-21T14:11:47;101655.98;;;11.64;61.28
18755;BME280;35061;47.664;9.166;2023-02-21T14:16:51;101659.15;;;11.66;61.08
18755;BME280;35061;47.664;9.166;2023-02-21T14:19:23;101651.00;;;11.65;60.83
18755;BME280;35061;47.664;9.166;2023-02-21T14:22:03;101642.08;;;11.63;60.29
18755;BME280;35061;47.664;9.166;2023-02-21T14:24:35;101647.99;;;11.59;59.65
18755;BME280;35061;47.664;9.166;2023-02-21T14:32:36;101632.37;;;11.51;60.84
18755;BME280;35061;47.664;9.166;2023-02-21T14:38:06;101616.96;;;11.48;61.13
18755;BME280;35061;47.664;9.166;2023-02-21T14:40:47;101619.80;;;11.48;61.27
18755;BME280;35061;47.664;9.166;2023-02-21T14:43:33;101618.23;;;11.47;61.46
18755;BME280;35061;47.664;9.166;2023-02-21T14:46:09;101615.66;;;11.49;61.20
18755;BME280;35061;47.664;9.166;2023-02-21T14:49:00;101609.44;;;11.51;61.31
18755;BME280;35061;47.664;9.166;2023-02-21T14:52:37;101604.80;;;11.53;60.69
18755;BME280;35061;47.664;9.166;2023-02-21T14:54:57;101597.80;;;11.54;60.35
18755;BME280;35061;47.664;9.166;2023-02-21T15:05:35;101586.29;;;11.64;60.19
18755;BME280;35061;47.664;9.166;2023-02-21T15:08:10;101589.00;;;11.67;59.60
18755;BME280;35061;47.664;9.166;2023-02-21T15:10:43;101579.91;;;11.69;59.93
18755;BME280;35061;47.664;9.166;2023-02-21T15:13:22;101584.69;;;11.72;59.94
18755;BME280;35061;47.664;9.166;2023-02-21T15:15:55;101578.77;;;11.76;59.11
18755;BME280;35061;47.664;9.166;2023-02-21T15:18:28;101571.25;;;11.78;59.07
18755;BME280;35061;47.664;9.166;2023-02-21T15:23:29;101561.83;;;11.87;58.69
18755;BME280;35061;47.664;9.166;2023-02-21T15:26:00;101564.55;;;11.91;59.17
18755;BME280;35061;47.664;9.166;2023-02-21T15:28:30;101557.52;;;11.92;59.13
18755;BME280;35061;47.664;9.166;2023-02-21T15:31:02;101541.39;;;11.94;59.21
18755;BME280;35061;47.664;9.166;2023-02-21T15:33:36;101543.78;;;11.96;59.13
18755;BME280;35061;47.664;9.166;2023-02-21T15:36:14;101541.72;;;11.96;59.19
18755;BME280;35061;47.664;9.166;2023-02-21T15:38:57;101539.63;;;11.97;58.41
18755;BME280;35061;47.664;9.166;2023-02-21T15:41:33;101529.72;;;11.98;58.62
18755;BME280;35061;47.664;9.166;2023-02-21T15:46:41;101532.59;;;11.98;58.60
18755;BME280;35061;47.664;9.166;2023-02-21T15:49:23;101528.93;;;11.97;58.70
18755;BME280;35061;47.664;9.166;2023-02-21T15:51:52;101534.39;;;11.95;58.51
18755;BME280;35061;47.664;9.166;2023-02-21T15:56:47;101531.38;;;11.90;59.17
18755;BME280;35061;47.664;9.166;2023-02-21T15:59:26;101540.94;;;11.86;59.34
18755;BME280;35061;47.664;9.166;2023-02-21T16:04:43;101528.70;;;11.77;59.21
18755;BME280;35061;47.664;9.166;2023-02-21T16:07:34;101523.47;;;11.75;59.32